createdAt,value
2024-01-09T00:02:09.581Z,0.47
2024-01-09T00:04:41.542Z,0.22
2024-01-09T00:07:13.894Z,0.26
2024-01-09T00:09:45.808Z,0.23
2024-01-09T00:15:11.559Z,0.24
2024-01-09T00:17:44.060Z,-0.05
2024-01-09T00:20:18.261Z,-0.23
2024-01-09T00:22:51.949Z,0.02
2024-01-09T00:25:24.730Z,-0.16
2024-01-09T00:27:57.146Z,-0.17
2024-01-09T00:30:29.599Z,1.69
2024-01-09T00:33:02.651Z,0.49
2024-01-09T00:35:35.403Z,0.11
2024-01-09T00:38:08.742Z,0.06
2024-01-09T00:40:41.641Z,0.07
2024-01-09T00:43:14.812Z,0.05
2024-01-09T00:45:47.297Z,-0.27
2024-01-09T00:48:19.865Z,-0.08
2024-01-09T00:50:52.115Z,-0.22
2024-01-09T00:53:25.016Z,-0.13
2024-01-09T00:55:57.683Z,0.02
2024-01-09T00:58:30.490Z,-0.20
2024-01-09T01:01:02.917Z,-0.33
2024-01-09T01:03:35.388Z,-0.57
2024-01-09T01:06:07.374Z,-0.59
2024-01-09T01:08:40.550Z,-0.33
2024-01-09T01:11:13.715Z,-0.37
2024-01-09T01:13:45.708Z,-0.61
2024-01-09T01:16:18.488Z,-0.52
2024-01-09T01:18:50.816Z,-0.40
2024-01-09T01:21:24.354Z,-0.46
2024-01-09T01:23:56.862Z,-0.59
2024-01-09T01:26:30.832Z,-0.51
2024-01-09T01:29:03.134Z,-0.45
2024-01-09T01:31:35.959Z,-0.56
2024-01-09T01:34:08.024Z,-0.70
2024-01-09T01:36:41.081Z,-0.81
2024-01-09T01:39:12.973Z,-0.75
2024-01-09T01:41:46.121Z,-0.58
2024-01-09T01:44:19.457Z,-0.73
2024-01-09T01:46:52.342Z,-0.85
2024-01-09T01:49:24.829Z,-0.74
2024-01-09T01:51:59.282Z,-0.75
2024-01-09T01:54:33.881Z,-0.91
2024-01-09T01:57:07.926Z,-0.67
2024-01-09T01:59:44.190Z,-0.82
2024-01-09T02:02:17.678Z,-0.85
2024-01-09T02:04:49.748Z,-0.79
2024-01-09T02:07:25.717Z,-0.85
2024-01-09T02:09:58.536Z,-0.66
2024-01-09T02:12:31.700Z,-0.74
2024-01-09T02:15:05.573Z,-0.73
2024-01-09T02:17:39.791Z,-0.80
2024-01-09T02:20:12.436Z,-0.55
2024-01-09T02:22:45.833Z,-0.48
2024-01-09T02:25:18.265Z,-0.72
2024-01-09T02:27:59.384Z,-0.59
2024-01-09T02:30:33.605Z,-0.63
2024-01-09T02:33:08.798Z,-0.53
2024-01-09T02:35:41.915Z,-0.67
2024-01-09T02:38:14.032Z,-0.66
2024-01-09T02:40:46.787Z,-0.52
2024-01-09T02:43:19.958Z,-0.67
2024-01-09T02:45:52.434Z,-0.78
2024-01-09T02:48:24.978Z,-0.76
2024-01-09T02:50:57.402Z,-0.93
2024-01-09T02:53:29.375Z,-0.93
2024-01-09T02:56:02.267Z,-0.93
2024-01-09T02:58:35.263Z,-0.83
2024-01-09T03:01:09.407Z,-0.67
2024-01-09T03:03:41.473Z,-0.62
2024-01-09T03:06:14.830Z,-0.70
2024-01-09T03:08:46.980Z,-0.83
2024-01-09T03:11:19.844Z,-0.78
2024-01-09T03:13:51.759Z,-0.89
2024-01-09T03:16:24.763Z,-0.79
2024-01-09T03:18:57.436Z,-0.92
2024-01-09T03:21:29.377Z,-0.95
2024-01-09T03:24:02.128Z,-0.83
2024-01-09T03:26:34.115Z,-0.91
2024-01-09T03:29:07.055Z,-0.91
2024-01-09T03:31:39.037Z,-1.14
2024-01-09T03:34:11.903Z,-1.08
2024-01-09T03:36:45.902Z,-0.82
2024-01-09T03:39:18.718Z,-0.89
2024-01-09T03:41:50.821Z,-0.90
2024-01-09T03:44:24.724Z,-1.01
2024-01-09T03:46:57.144Z,-0.98
2024-01-09T03:49:29.595Z,-0.97
2024-01-09T03:52:02.000Z,-0.93
2024-01-09T03:54:34.860Z,-0.82
2024-01-09T03:57:07.619Z,-0.95
2024-01-09T03:59:40.026Z,-0.95
2024-01-09T04:02:12.891Z,-1.12
2024-01-09T04:04:44.837Z,-1.14
2024-01-09T04:07:39.515Z,-0.97
2024-01-09T04:10:11.441Z,-1.18
2024-01-09T04:12:44.299Z,-1.07
2024-01-09T04:15:17.444Z,-1.02
2024-01-09T04:17:50.006Z,-0.97
2024-01-09T04:20:22.955Z,-1.06
2024-01-09T04:22:55.384Z,-1.17
2024-01-09T04:25:27.330Z,-1.14
2024-01-09T04:28:01.316Z,-1.14
2024-01-09T04:30:33.845Z,-1.03
2024-01-09T04:33:06.538Z,-0.99
2024-01-09T04:35:39.578Z,-1.10
2024-01-09T04:38:11.937Z,-0.91
2024-01-09T04:40:44.746Z,-1.02
2024-01-09T04:43:17.505Z,-1.06
2024-01-09T04:45:49.899Z,-1.04
2024-01-09T04:48:22.783Z,-1.01
2024-01-09T04:50:55.799Z,-1.02
2024-01-09T04:53:27.834Z,-1.10
2024-01-09T04:56:01.816Z,-1.16
2024-01-09T04:58:34.199Z,-0.65
2024-01-09T05:01:14.073Z,-0.09
2024-01-09T05:03:48.800Z,-0.86
2024-01-09T05:06:23.440Z,-0.89
2024-01-09T05:08:55.716Z,-1.08
2024-01-09T05:11:28.609Z,-1.13
2024-01-09T05:14:00.587Z,-1.26
2024-01-09T05:16:33.948Z,-1.12
2024-01-09T05:19:06.105Z,-1.32
2024-01-09T05:21:40.083Z,-1.14
2024-01-09T05:24:12.964Z,-1.02
2024-01-09T05:26:44.947Z,-1.20
2024-01-09T05:29:17.906Z,-1.13
2024-01-09T05:31:50.360Z,-1.27
2024-01-09T05:34:22.760Z,-1.02
2024-01-09T05:36:56.041Z,-1.10
2024-01-09T05:39:29.869Z,-1.06
2024-01-09T05:42:02.380Z,-1.24
2024-01-09T05:44:34.752Z,-0.97
2024-01-09T05:47:07.672Z,-1.06
2024-01-09T05:49:40.148Z,-1.01
2024-01-09T05:52:12.973Z,-0.93
2024-01-09T05:54:48.335Z,-0.90
2024-01-09T05:57:21.260Z,-1.09
2024-01-09T05:59:53.735Z,-0.86
2024-01-09T06:02:29.745Z,-0.95
2024-01-09T06:05:02.119Z,-0.80
2024-01-09T06:07:35.307Z,-0.96
2024-01-09T06:10:09.538Z,-0.82
2024-01-09T06:12:42.033Z,-0.75
2024-01-09T06:15:14.493Z,-0.69
2024-01-09T06:17:46.685Z,-0.69
2024-01-09T06:20:19.940Z,-0.83
2024-01-09T06:22:52.410Z,-1.01
2024-01-09T06:25:25.110Z,-0.83
2024-01-09T06:27:57.744Z,-0.77
2024-01-09T06:30:31.203Z,-0.79
2024-01-09T06:33:03.688Z,-1.07
2024-01-09T06:35:37.097Z,-0.90
2024-01-09T06:38:10.307Z,-0.81
2024-01-09T06:43:36.877Z,-0.96
2024-01-09T06:46:10.307Z,-1.07
2024-01-09T06:48:43.389Z,-1.02
2024-01-09T06:51:16.136Z,-1.26
2024-01-09T06:53:48.318Z,-1.39
2024-01-09T06:56:21.275Z,-1.45
2024-01-09T06:58:55.273Z,-1.11
2024-01-09T07:01:27.784Z,-1.15
2024-01-09T07:04:01.894Z,-1.02
2024-01-09T07:06:37.233Z,-1.19
2024-01-09T07:09:11.168Z,-1.17
2024-01-09T07:11:43.831Z,-1.25
2024-01-09T07:14:16.190Z,-1.17
2024-01-09T07:16:48.824Z,-1.13
2024-01-09T07:19:20.850Z,-1.03
2024-01-09T07:21:54.216Z,-0.87
2024-01-09T07:24:26.520Z,-0.97
2024-01-09T07:27:22.538Z,-0.95
2024-01-09T07:29:54.495Z,-0.52
2024-01-09T07:32:30.261Z,-0.78
2024-01-09T07:35:03.152Z,-0.97
2024-01-09T07:37:38.836Z,-1.05
2024-01-09T07:40:12.861Z,-0.93
2024-01-09T07:42:53.475Z,-0.99
2024-01-09T07:45:33.089Z,-1.26
2024-01-09T07:48:06.444Z,-1.13
2024-01-09T07:50:40.154Z,-1.16
2024-01-09T07:53:12.177Z,-1.16
2024-01-09T07:55:46.694Z,-0.89
2024-01-09T07:58:18.639Z,-1.06
2024-01-09T08:03:45.465Z,-0.96
2024-01-09T08:06:20.549Z,-0.90
2024-01-09T08:08:52.687Z,-0.77
2024-01-09T08:11:26.873Z,-0.56
2024-01-09T08:13:58.812Z,-0.69
2024-01-09T08:16:32.359Z,-0.86
2024-01-09T08:19:08.004Z,-0.54
2024-01-09T08:21:43.015Z,-0.59
2024-01-09T08:24:19.576Z,-0.59
2024-01-09T08:29:48.575Z,-0.07
2024-01-09T08:32:24.668Z,0.22
2024-01-09T08:34:57.018Z,-0.03
2024-01-09T08:37:30.326Z,-0.05
2024-01-09T08:40:02.394Z,-0.21
2024-01-09T08:45:29.558Z,-0.19
2024-01-09T08:48:03.940Z,-0.19
2024-01-09T08:50:36.060Z,0.13
2024-01-09T08:53:09.970Z,0.28
2024-01-09T08:55:43.385Z,0.47
2024-01-09T08:58:15.664Z,0.60
2024-01-09T09:00:50.598Z,0.73
2024-01-09T09:03:22.744Z,0.37
2024-01-09T09:05:56.824Z,0.59
2024-01-09T09:08:29.674Z,0.78
2024-01-09T09:11:04.593Z,0.57
2024-01-09T09:13:37.820Z,0.99
2024-01-09T09:16:32.377Z,0.65
2024-01-09T09:19:06.157Z,0.70
2024-01-09T09:24:34.721Z,2.01
2024-01-09T09:27:10.074Z,2.12
2024-01-09T09:29:45.437Z,1.93
2024-01-09T09:32:18.271Z,1.46
2024-01-09T09:34:52.328Z,1.26
2024-01-09T09:37:25.990Z,1.46
2024-01-09T09:39:57.928Z,1.40
2024-01-09T09:42:33.393Z,1.70
2024-01-09T09:45:12.853Z,1.93
2024-01-09T09:48:08.087Z,1.70
2024-01-09T09:50:40.590Z,1.54
2024-01-09T09:53:12.909Z,2.21
2024-01-09T09:55:48.619Z,2.53
2024-01-09T09:58:20.977Z,2.96
2024-01-09T10:00:59.030Z,2.69
2024-01-09T10:03:33.752Z,2.70
2024-01-09T10:06:08.897Z,2.27
2024-01-09T10:11:36.250Z,2.74
2024-01-09T10:17:06.748Z,2.95
2024-01-09T10:19:40.777Z,2.99
2024-01-09T10:22:15.194Z,3.49
2024-01-09T10:24:49.432Z,3.80
2024-01-09T10:27:22.460Z,2.99
2024-01-09T10:29:55.637Z,2.90
2024-01-09T10:32:28.261Z,1.94
2024-01-09T10:35:02.641Z,1.71
2024-01-09T10:37:37.841Z,1.51
2024-01-09T10:40:13.393Z,1.73
2024-01-09T10:42:47.096Z,1.61
2024-01-09T10:45:25.271Z,1.85
2024-01-09T10:47:59.759Z,1.14
2024-01-09T10:50:32.339Z,1.56
2024-01-09T10:53:07.246Z,1.30
2024-01-09T10:55:41.182Z,1.14
2024-01-09T10:58:14.699Z,1.17
2024-01-09T11:00:47.391Z,1.69
2024-01-09T11:06:20.892Z,1.46
2024-01-09T11:08:59.718Z,1.68
2024-01-09T11:11:36.798Z,1.69
2024-01-09T11:14:11.706Z,1.71
2024-01-09T11:16:48.823Z,1.80
2024-01-09T11:19:21.560Z,1.86
2024-01-09T11:21:57.359Z,1.94
2024-01-09T11:24:29.929Z,1.95
2024-01-09T11:27:14.825Z,1.39
2024-01-09T11:29:54.422Z,1.47
2024-01-09T11:32:29.356Z,1.55
2024-01-09T11:35:18.282Z,1.79
2024-01-09T11:37:53.222Z,1.23
2024-01-09T11:40:25.360Z,1.42
2024-01-09T11:42:57.716Z,1.17
2024-01-09T11:45:29.689Z,1.47
2024-01-09T11:48:02.971Z,2.03
2024-01-09T11:50:35.093Z,1.84
2024-01-09T11:53:07.862Z,1.47
2024-01-09T11:55:40.340Z,1.73
2024-01-09T11:58:13.584Z,1.93
2024-01-09T12:00:46.263Z,1.78
2024-01-09T12:03:18.932Z,1.90
2024-01-09T12:05:54.260Z,2.37
2024-01-09T12:08:27.175Z,2.13
2024-01-09T12:10:59.203Z,1.59
2024-01-09T12:13:31.901Z,1.76
2024-01-09T12:16:23.770Z,1.40
2024-01-09T12:18:58.142Z,1.29
2024-01-09T12:21:35.356Z,1.13
2024-01-09T12:26:45.496Z,1.15
2024-01-09T12:29:18.668Z,1.35
2024-01-09T12:31:51.147Z,1.13
2024-01-09T12:34:24.574Z,1.43
2024-01-09T12:36:58.229Z,1.10
2024-01-09T12:39:32.019Z,1.12
2024-01-09T12:42:17.660Z,1.50
2024-01-09T12:44:50.635Z,1.35
2024-01-09T12:47:26.303Z,1.62
2024-01-09T12:50:04.079Z,1.83
2024-01-09T12:52:39.112Z,1.81
2024-01-09T12:55:12.434Z,1.73
2024-01-09T12:57:44.941Z,2.32
2024-01-09T13:00:18.302Z,1.90
2024-01-09T13:02:50.934Z,1.96
2024-01-09T13:05:24.225Z,2.12
2024-01-09T13:07:57.786Z,2.20
2024-01-09T13:10:30.522Z,2.29
2024-01-09T13:13:02.977Z,2.15
2024-01-09T13:18:31.618Z,1.92
2024-01-09T13:21:04.826Z,1.48
2024-01-09T13:23:48.791Z,1.77
2024-01-09T13:26:24.528Z,1.61
2024-01-09T13:31:32.707Z,1.95
2024-01-09T13:34:05.884Z,1.71
2024-01-09T13:36:38.635Z,1.26
2024-01-09T13:39:13.315Z,1.71
2024-01-09T13:41:47.521Z,2.04
2024-01-09T13:44:20.955Z,1.90
2024-01-09T13:46:57.289Z,1.37
2024-01-09T13:49:30.696Z,1.42
2024-01-09T13:53:01.491Z,1.61
2024-01-09T13:55:34.327Z,1.38
2024-01-09T13:58:07.177Z,1.14
2024-01-09T14:00:39.304Z,1.24
2024-01-09T14:03:12.155Z,1.52
2024-01-09T14:05:44.308Z,1.61
2024-01-09T14:08:17.110Z,1.67
2024-01-09T14:10:51.884Z,2.09
2024-01-09T14:13:24.936Z,1.45
2024-01-09T14:15:58.570Z,1.49
2024-01-09T14:18:32.891Z,1.18
2024-01-09T14:21:05.458Z,1.49
2024-01-09T14:23:39.179Z,1.63
2024-01-09T14:26:11.948Z,1.68
2024-01-09T14:28:44.514Z,1.28
2024-01-09T14:31:17.521Z,1.37
2024-01-09T14:33:49.676Z,1.50
2024-01-09T14:36:22.889Z,1.40
2024-01-09T14:38:55.457Z,1.59
2024-01-09T14:41:28.342Z,1.75
2024-01-09T14:44:01.979Z,1.45
2024-01-09T14:46:36.048Z,1.30
2024-01-09T14:49:08.304Z,1.28
2024-01-09T14:51:44.322Z,1.31
2024-01-09T14:54:17.572Z,1.46
2024-01-09T14:56:51.008Z,1.46
2024-01-09T14:59:23.276Z,1.51
2024-01-09T15:01:56.573Z,1.60
2024-01-09T15:04:29.196Z,1.62
2024-01-09T15:07:02.853Z,1.40
2024-01-09T15:09:35.365Z,1.39
2024-01-09T15:12:08.411Z,1.63
2024-01-09T15:14:40.368Z,1.78
2024-01-09T15:17:13.112Z,1.72
2024-01-09T15:19:45.182Z,1.52
2024-01-09T15:22:17.921Z,1.61
2024-01-09T15:24:50.333Z,1.49
2024-01-09T15:27:23.698Z,1.47
2024-01-09T15:29:55.705Z,1.14
2024-01-09T15:32:28.951Z,1.43
2024-01-09T15:35:04.312Z,1.14
2024-01-09T15:37:38.394Z,1.35
2024-01-09T15:40:14.811Z,1.17
2024-01-09T15:42:49.197Z,1.17
2024-01-09T15:45:22.163Z,1.04
2024-01-09T15:47:58.919Z,0.97
2024-01-09T15:50:31.068Z,1.03
2024-01-09T15:53:05.909Z,1.28
2024-01-09T15:55:40.448Z,1.05
2024-01-09T15:58:13.616Z,1.16
2024-01-09T16:00:45.670Z,0.87
2024-01-09T16:03:18.616Z,1.12
2024-01-09T16:05:51.361Z,1.03
2024-01-09T16:08:24.113Z,0.84
2024-01-09T16:10:56.344Z,0.77
2024-01-09T16:13:30.351Z,1.15
2024-01-09T16:16:09.148Z,1.22
2024-01-09T16:18:41.986Z,1.04
2024-01-09T16:21:14.709Z,1.02
2024-01-09T16:23:48.357Z,1.28
2024-01-09T16:26:20.381Z,1.02
2024-01-09T16:28:54.843Z,1.28
2024-01-09T16:31:28.690Z,1.34
2024-01-09T16:34:01.821Z,1.37
2024-01-09T16:36:34.311Z,1.36
2024-01-09T16:39:08.980Z,1.42
2024-01-09T16:41:44.770Z,1.35
2024-01-09T16:44:18.115Z,1.44
2024-01-09T16:46:50.485Z,1.30
2024-01-09T16:49:23.712Z,1.47
2024-01-09T16:51:56.963Z,1.36
2024-01-09T16:54:30.969Z,1.29
2024-01-09T16:57:06.206Z,1.19
2024-01-09T16:59:39.091Z,1.01
2024-01-09T17:02:13.261Z,1.01
2024-01-09T17:04:46.800Z,1.17
2024-01-09T17:07:19.637Z,1.23
2024-01-09T17:09:52.359Z,0.92
2024-01-09T17:12:24.452Z,0.97
2024-01-09T17:14:58.652Z,1.30
2024-01-09T17:17:32.705Z,1.13
2024-01-09T17:20:06.529Z,1.07
2024-01-09T17:22:39.596Z,1.27
2024-01-09T17:25:12.532Z,1.24
2024-01-09T17:27:45.210Z,1.26
2024-01-09T17:30:18.497Z,1.32
2024-01-09T17:32:50.526Z,1.17
2024-01-09T17:35:23.235Z,1.15
2024-01-09T17:37:55.620Z,0.97
2024-01-09T17:40:28.328Z,0.93
2024-01-09T17:43:00.939Z,1.32
2024-01-09T17:45:34.096Z,1.36
2024-01-09T17:48:08.045Z,1.21
2024-01-09T17:50:41.624Z,1.32
2024-01-09T17:53:14.047Z,1.21
2024-01-09T17:55:48.156Z,1.19
2024-01-09T17:58:22.030Z,0.98
2024-01-09T18:00:54.975Z,1.09
2024-01-09T18:03:29.086Z,1.14
2024-01-09T18:06:02.449Z,1.20
2024-01-09T18:08:36.753Z,1.23
2024-01-09T18:11:09.496Z,1.05
2024-01-09T18:13:41.804Z,0.73
2024-01-09T18:16:14.752Z,0.82
2024-01-09T18:18:48.210Z,0.84
2024-01-09T18:21:27.692Z,0.75
2024-01-09T18:24:00.083Z,0.82
2024-01-09T18:26:33.468Z,0.65
2024-01-09T18:29:10.966Z,0.56
2024-01-09T18:31:49.022Z,0.60
2024-01-09T18:34:22.356Z,0.58
2024-01-09T18:36:55.570Z,0.66
2024-01-09T18:39:28.006Z,0.41
2024-01-09T18:42:01.054Z,0.40
2024-01-09T18:44:33.293Z,0.51
2024-01-09T18:47:06.051Z,0.75
2024-01-09T18:49:38.558Z,0.43
2024-01-09T18:52:11.880Z,0.39
2024-01-09T18:54:44.251Z,0.20
2024-01-09T18:57:17.011Z,0.20
2024-01-09T18:59:49.012Z,0.23
2024-01-09T19:02:21.797Z,0.15
2024-01-09T19:04:54.709Z,0.31
2024-01-09T19:07:27.930Z,0.25
2024-01-09T19:10:00.414Z,0.29
2024-01-09T19:12:33.543Z,0.39
2024-01-09T19:15:07.347Z,0.08
2024-01-09T19:17:40.397Z,0.09
2024-01-09T19:20:14.272Z,0.17
2024-01-09T19:22:49.023Z,0.08
2024-01-09T19:25:21.020Z,-0.02
2024-01-09T19:27:53.766Z,0.06
2024-01-09T19:30:25.950Z,-0.17
2024-01-09T19:33:00.294Z,0.03
2024-01-09T19:35:32.750Z,0.02
2024-01-09T19:38:05.952Z,0.14
2024-01-09T19:40:38.068Z,-0.24
2024-01-09T19:43:10.751Z,-0.40
2024-01-09T19:45:42.835Z,3.23
2024-01-09T19:48:18.435Z,1.64
2024-01-09T19:50:52.295Z,0.57
2024-01-09T19:53:25.436Z,0.56
2024-01-09T19:55:57.520Z,0.03
2024-01-09T19:58:30.827Z,0.05
2024-01-09T20:01:05.361Z,0.16
2024-01-09T20:03:38.176Z,-0.05
2024-01-09T20:06:22.448Z,0.10
2024-01-09T20:08:55.816Z,-0.02
2024-01-09T20:11:30.946Z,-0.18
2024-01-09T20:14:06.173Z,-0.01
2024-01-09T20:16:39.144Z,-0.00
2024-01-09T20:19:12.365Z,-0.13
2024-01-09T20:21:44.481Z,-0.30
2024-01-09T20:24:17.332Z,-0.36
2024-01-09T20:26:50.402Z,-0.33
2024-01-09T20:29:23.398Z,-0.53
2024-01-09T20:31:56.131Z,-0.37
2024-01-09T20:34:29.004Z,-0.64
2024-01-09T20:37:01.622Z,-0.19
2024-01-09T20:39:34.788Z,-0.22
2024-01-09T20:42:06.806Z,-0.41
2024-01-09T20:44:42.563Z,-0.38
2024-01-09T20:47:15.400Z,-0.32
2024-01-09T20:49:51.253Z,-0.31
2024-01-09T20:52:23.917Z,-0.37
2024-01-09T20:54:57.065Z,-0.41
2024-01-09T20:57:29.666Z,-0.65
2024-01-09T21:00:05.343Z,-0.34
2024-01-09T21:02:37.568Z,-0.40
2024-01-09T21:05:12.407Z,-0.71
2024-01-09T21:07:44.835Z,-0.34
2024-01-09T21:10:18.659Z,-0.40
2024-01-09T21:12:50.719Z,-0.45
2024-01-09T21:15:24.089Z,-0.28
2024-01-09T21:17:58.089Z,-0.30
2024-01-09T21:20:36.807Z,-0.26
2024-01-09T21:23:09.826Z,-0.55
2024-01-09T21:25:44.429Z,-0.33
2024-01-09T21:28:18.298Z,-0.22
2024-01-09T21:30:51.124Z,-0.39
2024-01-09T21:33:27.024Z,-0.22
2024-01-09T21:35:59.783Z,-0.52
2024-01-09T21:38:32.425Z,-0.25
2024-01-09T21:41:04.978Z,-0.30
2024-01-09T21:43:37.685Z,-0.39
2024-01-09T21:46:10.491Z,-0.53
2024-01-09T21:48:42.788Z,-0.58
2024-01-09T21:51:15.157Z,-0.54
2024-01-09T21:53:47.677Z,-0.30
2024-01-09T21:56:21.199Z,-0.38
2024-01-09T21:58:53.836Z,-0.41
2024-01-09T22:01:27.575Z,-0.54
2024-01-09T22:04:00.600Z,-0.48
2024-01-09T22:06:33.828Z,-0.64
2024-01-09T22:09:06.780Z,-0.52
2024-01-09T22:11:42.823Z,-0.51
2024-01-09T22:14:15.295Z,-0.56
2024-01-09T22:16:48.130Z,-0.67
2024-01-09T22:19:20.556Z,1.74
2024-01-09T22:21:53.636Z,1.21
2024-01-09T22:24:25.912Z,0.02
2024-01-09T22:26:58.607Z,-0.29
2024-01-09T22:29:30.677Z,-0.43
2024-01-09T22:32:06.280Z,-0.38
2024-01-09T22:34:38.529Z,-0.71
2024-01-09T22:37:11.576Z,-0.82
2024-01-09T22:39:44.685Z,-0.53
2024-01-09T22:42:17.328Z,-0.58
2024-01-09T22:44:49.288Z,-0.73
2024-01-09T22:47:22.060Z,-0.57
2024-01-09T22:49:54.076Z,-0.61
2024-01-09T22:52:26.870Z,-0.78
2024-01-09T22:54:58.922Z,-0.70
2024-01-09T22:57:31.607Z,-0.59
2024-01-09T23:00:16.524Z,-0.78
2024-01-09T23:02:51.356Z,-0.63
2024-01-09T23:05:23.482Z,-0.58
2024-01-09T23:07:58.756Z,-0.47
2024-01-09T23:10:31.601Z,-0.59
2024-01-09T23:13:04.125Z,-0.54
2024-01-09T23:15:36.161Z,-0.63
2024-01-09T23:18:09.821Z,-0.74
2024-01-09T23:20:41.865Z,-0.71
2024-01-09T23:23:14.576Z,-0.63
2024-01-09T23:25:47.081Z,-0.63
2024-01-09T23:28:19.728Z,-0.63
2024-01-09T23:30:51.787Z,-0.63
2024-01-09T23:33:24.571Z,-0.63
2024-01-09T23:35:56.621Z,-0.63
2024-01-09T23:38:29.530Z,-0.61
2024-01-09T23:41:01.737Z,-0.62
2024-01-09T23:43:34.484Z,-0.66
2024-01-09T23:46:06.460Z,-0.75
2024-01-09T23:48:39.102Z,-0.67
2024-01-09T23:51:12.474Z,-0.58
2024-01-09T23:53:45.342Z,-0.71
2024-01-09T23:56:17.652Z,-0.77
2024-01-09T23:58:52.625Z,-0.70
